createdAt,value
2023-05-09T00:00:55.846Z,8.17
2023-05-09T00:03:22.825Z,8.06
2023-05-09T00:05:49.880Z,8.09
2023-05-09T00:08:17.082Z,7.98
2023-05-09T00:10:44.106Z,7.90
2023-05-09T00:13:12.231Z,7.89
2023-05-09T00:15:39.415Z,7.86
2023-05-09T00:18:06.673Z,7.92
2023-05-09T00:20:34.173Z,7.85
2023-05-09T00:23:01.237Z,7.92
2023-05-09T00:25:28.304Z,7.89
2023-05-09T00:27:55.332Z,7.84
2023-05-09T00:30:22.361Z,7.69
2023-05-09T00:32:49.457Z,7.83
2023-05-09T00:35:16.717Z,7.68
2023-05-09T00:37:43.835Z,7.99
2023-05-09T00:40:11.581Z,7.94
2023-05-09T00:42:38.577Z,8.17
2023-05-09T00:45:07.085Z,8.11
2023-05-09T00:47:34.394Z,8.13
2023-05-09T00:50:02.430Z,8.07
2023-05-09T00:52:30.083Z,8.10
2023-05-09T00:54:57.736Z,8.07
2023-05-09T00:57:24.791Z,7.87
2023-05-09T00:59:51.827Z,7.87
2023-05-09T01:02:19.261Z,7.88
2023-05-09T01:04:47.284Z,7.85
2023-05-09T01:07:39.476Z,7.90
2023-05-09T01:10:36.993Z,7.91
2023-05-09T01:13:38.496Z,7.73
2023-05-09T01:16:26.622Z,7.86
2023-05-09T01:19:09.576Z,7.87
2023-05-09T01:21:40.741Z,7.94
2023-05-09T01:24:25.072Z,7.88
2023-05-09T01:27:36.340Z,7.91
2023-05-09T01:30:04.985Z,7.78
2023-05-09T01:32:36.495Z,7.54
2023-05-09T01:35:05.258Z,7.61
2023-05-09T01:37:39.709Z,7.77
2023-05-09T01:40:20.183Z,7.65
2023-05-09T01:43:00.138Z,7.33
2023-05-09T01:45:28.801Z,7.36
2023-05-09T01:47:58.292Z,7.38
2023-05-09T01:50:26.917Z,7.41
2023-05-09T01:52:57.786Z,7.64
2023-05-09T01:55:32.913Z,7.71
2023-05-09T01:58:01.208Z,7.63
2023-05-09T02:00:28.810Z,7.57
2023-05-09T02:02:57.707Z,7.62
2023-05-09T02:05:28.768Z,7.51
2023-05-09T02:07:58.576Z,7.63
2023-05-09T02:10:28.702Z,7.56
2023-05-09T02:12:57.306Z,7.59
2023-05-09T02:15:26.069Z,7.59
2023-05-09T02:17:53.237Z,7.53
2023-05-09T02:20:20.562Z,7.48
2023-05-09T02:22:48.420Z,7.47
2023-05-09T02:25:16.114Z,7.48
2023-05-09T02:27:46.179Z,7.46
2023-05-09T02:30:21.098Z,7.33
2023-05-09T02:32:50.806Z,7.26
2023-05-09T02:35:18.647Z,7.31
2023-05-09T02:37:47.512Z,7.28
2023-05-09T02:40:14.804Z,7.34
2023-05-09T02:42:41.988Z,7.27
2023-05-09T02:45:11.161Z,7.29
2023-05-09T02:47:39.345Z,7.39
2023-05-09T02:50:07.390Z,7.36
2023-05-09T02:52:34.465Z,7.17
2023-05-09T02:55:01.423Z,7.11
2023-05-09T02:57:28.381Z,6.99
2023-05-09T02:59:55.363Z,7.09
2023-05-09T03:02:23.800Z,7.12
2023-05-09T03:04:51.055Z,7.04
2023-05-09T03:07:18.103Z,7.16
2023-05-09T03:09:45.149Z,7.24
2023-05-09T03:12:12.237Z,7.10
2023-05-09T03:14:39.237Z,7.17
2023-05-09T03:17:06.292Z,7.17
2023-05-09T03:19:33.676Z,7.20
2023-05-09T03:22:00.710Z,7.23
2023-05-09T03:24:28.339Z,7.73
2023-05-09T03:26:55.610Z,8.43
2023-05-09T03:29:22.836Z,9.04
2023-05-09T03:31:49.930Z,9.51
2023-05-09T03:34:17.257Z,9.94
2023-05-09T03:36:44.715Z,10.62
2023-05-09T03:39:11.772Z,11.50
2023-05-09T03:41:38.841Z,12.04
2023-05-09T03:44:06.197Z,13.02
2023-05-09T03:46:33.284Z,13.26
2023-05-09T03:49:00.332Z,13.61
2023-05-09T03:51:27.333Z,14.52
2023-05-09T03:53:54.347Z,14.96
2023-05-09T03:56:21.290Z,15.31
2023-05-09T03:58:48.636Z,16.51
2023-05-09T04:01:16.203Z,16.62
2023-05-09T04:03:43.398Z,17.36
2023-05-09T04:06:10.701Z,18.55
2023-05-09T04:08:37.877Z,19.02
2023-05-09T04:11:04.977Z,19.66
2023-05-09T04:13:33.104Z,20.34
2023-05-09T04:16:00.121Z,20.35
2023-05-09T04:18:27.237Z,20.72
2023-05-09T04:20:54.273Z,21.49
2023-05-09T04:23:21.225Z,23.19
2023-05-09T04:25:50.332Z,24.33
2023-05-09T04:28:17.521Z,25.69
2023-05-09T04:30:44.549Z,25.99
2023-05-09T04:33:11.653Z,26.87
2023-05-09T04:35:38.863Z,26.33
2023-05-09T04:38:06.068Z,27.61
2023-05-09T04:40:33.482Z,28.00
2023-05-09T04:43:00.491Z,29.46
2023-05-09T04:45:27.785Z,30.37
2023-05-09T04:47:54.831Z,30.24
2023-05-09T04:50:21.887Z,30.29
2023-05-09T04:52:49.129Z,31.72
2023-05-09T04:55:16.451Z,31.91
2023-05-09T04:57:43.572Z,30.20
2023-05-09T05:00:11.997Z,32.00
2023-05-09T05:02:39.132Z,32.62
2023-05-09T05:05:12.100Z,31.49
2023-05-09T05:07:39.745Z,32.47
2023-05-09T05:10:07.611Z,33.42
2023-05-09T05:12:34.668Z,34.04
2023-05-09T05:15:01.678Z,34.74
2023-05-09T05:17:29.678Z,34.33
2023-05-09T05:19:56.986Z,35.42
2023-05-09T05:22:24.366Z,34.06
2023-05-09T05:24:51.414Z,34.34
2023-05-09T05:27:18.494Z,37.64
2023-05-09T05:29:45.470Z,36.17
2023-05-09T05:32:12.575Z,35.66
2023-05-09T05:34:39.769Z,36.27
2023-05-09T05:37:06.792Z,34.40
2023-05-09T05:39:33.822Z,35.49
2023-05-09T05:42:00.850Z,36.99
2023-05-09T05:44:27.828Z,35.66
2023-05-09T05:46:54.850Z,36.21
2023-05-09T05:49:21.879Z,34.52
2023-05-09T05:51:48.893Z,37.24
2023-05-09T05:54:15.863Z,35.78
2023-05-09T05:56:43.045Z,35.78
2023-05-09T05:59:12.556Z,35.94
2023-05-09T06:01:40.832Z,36.77
2023-05-09T06:04:08.074Z,36.32
2023-05-09T06:06:35.203Z,38.01
2023-05-09T06:09:02.199Z,37.32
2023-05-09T06:11:29.197Z,36.66
2023-05-09T06:13:56.269Z,35.25
2023-05-09T06:16:23.384Z,34.80
2023-05-09T06:18:51.155Z,38.08
2023-05-09T06:21:18.788Z,35.46
2023-05-09T06:23:57.820Z,35.39
2023-05-09T06:26:29.378Z,33.07
2023-05-09T06:28:56.446Z,32.09
2023-05-09T06:31:25.473Z,32.07
2023-05-09T06:33:53.202Z,32.61
2023-05-09T06:36:20.353Z,34.30
2023-05-09T06:38:47.412Z,33.48
2023-05-09T06:41:14.560Z,33.22
2023-05-09T06:43:41.579Z,34.21
2023-05-09T06:46:08.644Z,34.52
2023-05-09T06:48:35.780Z,35.07
2023-05-09T06:51:03.061Z,35.26
2023-05-09T06:53:30.027Z,34.40
2023-05-09T06:55:57.092Z,33.67
2023-05-09T06:58:24.204Z,33.42
2023-05-09T07:00:51.709Z,35.14
2023-05-09T07:03:18.732Z,35.46
2023-05-09T07:05:45.856Z,35.44
2023-05-09T07:08:12.810Z,35.09
2023-05-09T07:10:40.069Z,35.72
2023-05-09T07:13:07.176Z,34.70
2023-05-09T07:15:42.234Z,35.52
2023-05-09T07:18:10.093Z,36.22
2023-05-09T07:20:37.337Z,33.83
2023-05-09T07:23:06.017Z,33.69
2023-05-09T07:25:33.966Z,33.06
2023-05-09T07:28:01.193Z,30.97
2023-05-09T07:30:28.247Z,28.21
2023-05-09T07:32:55.356Z,28.45
2023-05-09T07:35:22.664Z,29.37
2023-05-09T07:37:49.717Z,30.24
2023-05-09T07:40:17.004Z,29.19
2023-05-09T07:42:50.022Z,28.73
2023-05-09T07:45:18.831Z,27.69
2023-05-09T07:47:47.050Z,27.86
2023-05-09T07:50:14.074Z,28.62
2023-05-09T07:52:41.196Z,27.51
2023-05-09T07:55:08.686Z,26.52
2023-05-09T07:57:35.691Z,26.27
2023-05-09T08:00:02.829Z,26.85
2023-05-09T08:02:29.851Z,25.72
2023-05-09T08:04:56.918Z,24.90
2023-05-09T08:07:23.885Z,25.59
2023-05-09T08:09:50.908Z,24.83
2023-05-09T08:12:17.981Z,25.29
2023-05-09T08:14:45.115Z,25.51
2023-05-09T08:17:12.149Z,25.25
2023-05-09T08:19:39.192Z,24.25
2023-05-09T08:22:06.154Z,24.41
2023-05-09T08:24:33.204Z,24.65
2023-05-09T08:27:00.762Z,24.14
2023-05-09T08:29:28.977Z,25.27
2023-05-09T08:31:56.102Z,25.14
2023-05-09T08:34:23.226Z,24.64
2023-05-09T08:36:50.237Z,24.91
2023-05-09T08:39:17.285Z,23.70
2023-05-09T08:41:44.579Z,23.14
2023-05-09T08:44:11.761Z,24.46
2023-05-09T08:46:43.758Z,24.85
2023-05-09T08:49:11.597Z,23.91
2023-05-09T08:51:39.740Z,24.58
2023-05-09T08:54:06.994Z,24.02
2023-05-09T08:56:35.525Z,23.61
2023-05-09T08:59:03.986Z,24.10
2023-05-09T09:01:33.270Z,24.81
2023-05-09T09:04:01.123Z,24.21
2023-05-09T09:06:30.230Z,23.23
2023-05-09T09:08:58.918Z,23.39
2023-05-09T09:11:28.638Z,23.27
2023-05-09T09:13:59.556Z,23.93
2023-05-09T09:16:28.893Z,23.16
2023-05-09T09:18:58.952Z,23.69
2023-05-09T09:21:27.425Z,22.18
2023-05-09T09:23:56.760Z,22.06
2023-05-09T09:26:24.786Z,21.38
2023-05-09T09:28:52.037Z,21.29
2023-05-09T09:31:26.009Z,21.20
2023-05-09T09:33:58.899Z,21.84
2023-05-09T09:36:32.324Z,21.65
2023-05-09T09:39:02.491Z,21.30
2023-05-09T09:41:37.104Z,20.97
2023-05-09T09:44:14.336Z,21.35
2023-05-09T09:46:55.881Z,20.84
2023-05-09T09:49:25.532Z,21.69
2023-05-09T09:51:58.032Z,21.14
2023-05-09T09:54:29.055Z,20.94
2023-05-09T09:56:56.542Z,21.32
2023-05-09T09:59:26.672Z,20.47
2023-05-09T10:02:01.889Z,21.13
2023-05-09T10:04:32.712Z,20.87
2023-05-09T10:07:06.425Z,21.14
2023-05-09T10:09:35.720Z,21.20
2023-05-09T10:12:06.291Z,21.83
2023-05-09T10:14:36.619Z,22.00
2023-05-09T10:17:05.933Z,21.37
2023-05-09T10:19:35.835Z,21.67
2023-05-09T10:22:11.940Z,21.09
2023-05-09T10:25:14.082Z,21.74
2023-05-09T10:27:46.784Z,21.62
2023-05-09T10:30:34.214Z,21.52
2023-05-09T10:33:10.475Z,21.56
2023-05-09T10:35:47.248Z,21.06
2023-05-09T10:38:14.553Z,21.30
2023-05-09T10:40:42.031Z,21.54
2023-05-09T10:43:09.065Z,21.06
2023-05-09T10:45:36.888Z,20.60
2023-05-09T10:48:08.855Z,20.11
2023-05-09T10:50:37.731Z,19.79
2023-05-09T10:53:04.868Z,19.74
2023-05-09T10:55:39.999Z,20.53
2023-05-09T10:58:28.876Z,20.58
2023-05-09T11:00:59.301Z,20.12
2023-05-09T11:03:28.190Z,20.15
2023-05-09T11:05:58.506Z,19.72
2023-05-09T11:08:31.315Z,19.13
2023-05-09T11:11:07.442Z,19.89
2023-05-09T11:13:38.505Z,20.01
2023-05-09T11:16:09.412Z,19.57
2023-05-09T11:18:52.032Z,19.11
2023-05-09T11:21:20.478Z,18.76
2023-05-09T11:23:49.091Z,18.91
2023-05-09T11:26:16.862Z,18.92
2023-05-09T11:28:53.965Z,18.56
2023-05-09T11:31:21.161Z,18.74
2023-05-09T11:33:55.182Z,18.65
2023-05-09T11:36:30.020Z,18.83
2023-05-09T11:39:11.465Z,18.81
2023-05-09T11:41:46.309Z,19.03
2023-05-09T11:44:21.350Z,18.69
2023-05-09T11:46:49.523Z,18.61
2023-05-09T11:49:17.789Z,18.36
2023-05-09T11:51:44.820Z,18.39
2023-05-09T11:54:13.687Z,18.02
2023-05-09T11:56:42.029Z,17.97
2023-05-09T11:59:10.597Z,17.96
2023-05-09T12:01:37.685Z,18.33
2023-05-09T12:04:08.399Z,18.22
2023-05-09T12:06:35.479Z,17.94
2023-05-09T12:09:02.603Z,18.32
2023-05-09T12:11:32.473Z,18.04
2023-05-09T12:13:59.685Z,18.04
2023-05-09T12:16:26.829Z,18.05
2023-05-09T12:18:54.355Z,17.67
2023-05-09T12:21:21.858Z,18.08
2023-05-09T12:23:51.298Z,18.10
2023-05-09T12:26:22.187Z,18.09
2023-05-09T12:28:50.117Z,18.10
2023-05-09T12:31:17.985Z,17.88
2023-05-09T12:33:45.253Z,18.20
2023-05-09T12:36:13.806Z,18.38
2023-05-09T12:38:40.961Z,17.90
2023-05-09T12:41:33.382Z,18.37
2023-05-09T12:43:59.155Z,18.08
2023-05-09T12:46:26.196Z,18.01
2023-05-09T12:48:55.288Z,18.11
2023-05-09T12:51:23.559Z,18.07
2023-05-09T12:53:50.596Z,18.45
2023-05-09T12:56:20.885Z,18.58
2023-05-09T12:58:53.422Z,18.22
2023-05-09T13:01:23.766Z,18.20
2023-05-09T13:04:05.916Z,17.98
2023-05-09T13:06:34.471Z,18.23
2023-05-09T13:09:06.149Z,18.77
2023-05-09T13:11:33.283Z,18.49
2023-05-09T13:14:00.428Z,18.30
2023-05-09T13:16:27.720Z,18.48
2023-05-09T13:18:54.767Z,18.32
2023-05-09T13:21:21.829Z,18.21
2023-05-09T13:23:50.241Z,18.52
2023-05-09T13:26:17.492Z,18.66
2023-05-09T13:28:44.548Z,18.17
2023-05-09T13:31:11.670Z,18.01
2023-05-09T13:33:38.826Z,17.99
2023-05-09T13:36:06.661Z,18.03
2023-05-09T13:38:37.167Z,18.28
2023-05-09T13:41:04.378Z,18.24
2023-05-09T13:43:31.359Z,17.67
2023-05-09T13:45:58.417Z,17.72
2023-05-09T13:48:25.416Z,17.76
2023-05-09T13:50:52.577Z,17.64
2023-05-09T13:53:20.020Z,17.56
2023-05-09T13:55:47.348Z,17.74
2023-05-09T13:58:14.380Z,17.88
2023-05-09T14:00:41.949Z,18.17
2023-05-09T14:03:09.758Z,18.22
2023-05-09T14:05:36.816Z,18.13
2023-05-09T14:08:03.969Z,17.92
2023-05-09T14:10:30.959Z,18.09
2023-05-09T14:12:58.777Z,18.01
2023-05-09T14:15:26.093Z,17.87
2023-05-09T14:17:53.142Z,18.00
2023-05-09T14:20:21.265Z,18.18
2023-05-09T14:22:48.331Z,18.06
2023-05-09T14:25:15.370Z,18.18
2023-05-09T14:27:42.377Z,18.04
2023-05-09T14:30:11.408Z,17.97
2023-05-09T14:32:38.411Z,17.84
2023-05-09T14:35:06.209Z,17.74
2023-05-09T14:37:33.854Z,18.00
2023-05-09T14:40:05.511Z,18.00
2023-05-09T14:42:32.963Z,17.91
2023-05-09T14:44:59.972Z,18.12
2023-05-09T14:47:27.093Z,17.87
2023-05-09T14:49:54.231Z,17.82
2023-05-09T14:52:21.223Z,18.11
2023-05-09T14:54:48.205Z,18.36
2023-05-09T14:57:15.155Z,18.29
2023-05-09T14:59:42.296Z,18.25
2023-05-09T15:02:09.256Z,18.06
2023-05-09T15:04:36.270Z,18.06
2023-05-09T15:07:03.277Z,18.02
2023-05-09T15:09:30.269Z,17.82
2023-05-09T15:11:57.249Z,18.00
2023-05-09T15:14:24.257Z,17.63
2023-05-09T15:16:55.385Z,17.79
2023-05-09T15:19:22.670Z,17.77
2023-05-09T15:21:49.833Z,17.67
2023-05-09T15:24:17.135Z,17.49
2023-05-09T15:26:44.323Z,17.78
2023-05-09T15:29:11.350Z,17.43
2023-05-09T15:31:38.517Z,17.62
2023-05-09T15:34:05.501Z,17.46
2023-05-09T15:36:34.015Z,17.67
2023-05-09T15:39:01.400Z,17.29
2023-05-09T15:41:28.755Z,17.17
2023-05-09T15:43:55.792Z,17.23
2023-05-09T15:46:22.968Z,17.41
2023-05-09T15:48:50.681Z,17.27
2023-05-09T15:51:17.751Z,17.49
2023-05-09T15:53:44.925Z,17.52
2023-05-09T15:56:11.933Z,17.46
2023-05-09T15:58:40.343Z,17.44
2023-05-09T16:01:08.276Z,17.41
2023-05-09T16:03:35.817Z,17.02
2023-05-09T16:06:03.362Z,17.27
2023-05-09T16:08:30.422Z,17.16
2023-05-09T16:11:00.818Z,17.40
2023-05-09T16:13:28.297Z,17.50
2023-05-09T16:15:55.692Z,17.34
2023-05-09T16:18:22.862Z,17.47
2023-05-09T16:20:49.891Z,17.10
2023-05-09T16:23:17.007Z,17.20
2023-05-09T16:25:45.045Z,17.19
2023-05-09T16:28:12.237Z,17.05
2023-05-09T16:30:39.250Z,17.19
2023-05-09T16:33:06.277Z,17.39
2023-05-09T16:35:33.967Z,17.18
2023-05-09T16:38:01.084Z,17.30
2023-05-09T16:40:28.594Z,17.08
2023-05-09T16:42:55.841Z,16.94
2023-05-09T16:45:22.891Z,16.83
2023-05-09T16:47:51.242Z,16.65
2023-05-09T16:50:18.448Z,16.68
2023-05-09T16:52:45.512Z,16.88
2023-05-09T16:55:12.595Z,16.58
2023-05-09T16:57:39.709Z,16.93
2023-05-09T17:00:09.851Z,17.03
2023-05-09T17:02:37.309Z,16.78
2023-05-09T17:05:05.134Z,16.56
2023-05-09T17:07:32.355Z,16.16
2023-05-09T17:09:59.583Z,16.33
2023-05-09T17:12:27.627Z,16.41
2023-05-09T17:14:54.703Z,16.50
2023-05-09T17:17:21.743Z,16.26
2023-05-09T17:19:48.901Z,16.48
2023-05-09T17:22:15.892Z,16.20
2023-05-09T17:24:42.945Z,16.20
2023-05-09T17:27:11.499Z,16.18
2023-05-09T17:29:38.549Z,16.01
2023-05-09T17:32:05.894Z,16.02
2023-05-09T17:34:33.513Z,16.17
2023-05-09T17:37:02.361Z,15.88
2023-05-09T17:39:29.613Z,16.06
2023-05-09T17:41:56.706Z,15.64
2023-05-09T17:44:24.119Z,15.62
2023-05-09T17:46:51.223Z,15.84
2023-05-09T17:49:18.424Z,15.65
2023-05-09T17:51:45.456Z,15.62
2023-05-09T17:54:12.979Z,15.51
2023-05-09T17:56:40.151Z,15.37
2023-05-09T18:01:35.068Z,15.43
2023-05-09T18:04:02.260Z,15.34
2023-05-09T18:06:29.445Z,15.39
2023-05-09T18:08:56.421Z,15.45
2023-05-09T18:11:24.575Z,15.16
2023-05-09T18:13:51.627Z,15.31
2023-05-09T18:16:18.683Z,15.04
2023-05-09T18:18:45.783Z,15.27
2023-05-09T18:21:13.073Z,15.13
2023-05-09T18:23:41.046Z,14.96
2023-05-09T18:26:08.614Z,14.77
2023-05-09T18:28:41.761Z,14.78
2023-05-09T18:31:11.666Z,14.75
2023-05-09T18:33:39.415Z,14.73
2023-05-09T18:36:11.230Z,14.65
2023-05-09T18:38:39.860Z,14.78
2023-05-09T18:41:15.610Z,14.59
2023-05-09T18:43:46.576Z,14.42
2023-05-09T18:46:17.638Z,14.53
2023-05-09T18:48:46.322Z,14.59
2023-05-09T18:51:13.439Z,14.70
2023-05-09T18:53:40.532Z,14.44
2023-05-09T18:56:07.778Z,14.40
2023-05-09T18:58:35.833Z,14.42
2023-05-09T19:01:03.060Z,14.35
2023-05-09T19:03:30.459Z,14.30
2023-05-09T19:05:59.820Z,14.33
2023-05-09T19:08:27.346Z,14.29
2023-05-09T19:10:54.383Z,14.13
2023-05-09T19:13:21.536Z,14.23
2023-05-09T19:15:48.650Z,14.02
2023-05-09T19:18:15.676Z,14.03
2023-05-09T19:20:46.569Z,14.24
2023-05-09T19:23:13.570Z,14.00
2023-05-09T19:25:40.632Z,13.85
2023-05-09T19:28:07.766Z,13.99
2023-05-09T19:30:35.963Z,13.96
2023-05-09T19:33:03.055Z,13.87
2023-05-09T19:35:30.098Z,13.66
2023-05-09T19:37:58.165Z,13.66
2023-05-09T19:40:25.160Z,13.58
2023-05-09T19:42:52.166Z,13.59
2023-05-09T19:45:19.977Z,13.76
2023-05-09T19:47:47.175Z,13.46
2023-05-09T19:50:14.451Z,13.34
2023-05-09T19:52:41.761Z,13.42
2023-05-09T19:55:09.814Z,13.56
2023-05-09T19:57:36.931Z,13.54
2023-05-09T20:00:07.032Z,13.40
2023-05-09T20:02:34.484Z,13.31
2023-05-09T20:05:01.598Z,13.52
2023-05-09T20:07:28.757Z,13.22
2023-05-09T20:09:55.875Z,13.22
2023-05-09T20:12:22.887Z,13.26
2023-05-09T20:14:49.891Z,13.20
2023-05-09T20:17:16.947Z,13.15
2023-05-09T20:19:45.081Z,13.23
2023-05-09T20:22:12.125Z,13.02
2023-05-09T20:24:39.170Z,13.09
2023-05-09T20:27:06.196Z,12.89
2023-05-09T20:29:33.261Z,12.82
2023-05-09T20:32:00.504Z,13.01
2023-05-09T20:34:27.612Z,12.98
2023-05-09T20:36:55.170Z,13.03
2023-05-09T20:39:23.166Z,12.80
2023-05-09T20:41:51.375Z,12.73
2023-05-09T20:44:19.216Z,12.65
2023-05-09T20:46:46.596Z,12.71
2023-05-09T20:49:13.801Z,12.59
2023-05-09T20:51:40.896Z,12.45
2023-05-09T20:54:08.115Z,12.65
2023-05-09T20:56:35.680Z,12.71
2023-05-09T20:59:04.209Z,12.59
2023-05-09T21:01:35.406Z,12.64
2023-05-09T21:04:08.267Z,12.52
2023-05-09T21:06:36.565Z,12.46
2023-05-09T21:09:09.260Z,12.39
2023-05-09T21:11:37.287Z,12.31
2023-05-09T21:14:04.263Z,12.41
2023-05-09T21:16:31.593Z,12.27
2023-05-09T21:19:02.484Z,12.41
2023-05-09T21:21:31.603Z,12.40
2023-05-09T21:23:59.621Z,12.42
2023-05-09T21:26:26.730Z,12.19
2023-05-09T21:28:53.805Z,12.03
2023-05-09T21:31:20.979Z,12.12
2023-05-09T21:33:48.040Z,12.32
2023-05-09T21:36:15.048Z,12.26
2023-05-09T21:38:42.111Z,12.24
2023-05-09T21:41:10.159Z,12.35
2023-05-09T21:43:37.732Z,12.22
2023-05-09T21:46:06.094Z,12.33
2023-05-09T21:48:33.258Z,12.36
2023-05-09T21:51:03.957Z,12.32
2023-05-09T21:53:31.193Z,12.12
2023-05-09T21:55:58.188Z,12.36
2023-05-09T21:58:25.295Z,12.26
2023-05-09T22:00:52.261Z,12.25
2023-05-09T22:03:19.440Z,12.48
2023-05-09T22:05:46.530Z,12.40
2023-05-09T22:08:13.629Z,12.41
2023-05-09T22:10:40.923Z,12.31
2023-05-09T22:13:08.675Z,12.28
2023-05-09T22:15:35.703Z,12.17
2023-05-09T22:18:02.788Z,12.18
2023-05-09T22:20:29.888Z,12.14
2023-05-09T22:22:57.021Z,12.05
2023-05-09T22:25:23.976Z,11.99
2023-05-09T22:27:51.230Z,12.18
2023-05-09T22:30:18.418Z,12.14
2023-05-09T22:32:45.983Z,11.92
2023-05-09T22:35:13.085Z,11.99
2023-05-09T22:37:40.143Z,12.11
2023-05-09T22:40:09.342Z,12.02
2023-05-09T22:42:36.603Z,12.13
2023-05-09T22:45:03.899Z,11.96
2023-05-09T22:47:30.942Z,11.92
2023-05-09T22:49:58.108Z,11.81
2023-05-09T22:52:25.192Z,11.77
2023-05-09T22:54:52.583Z,11.77
2023-05-09T22:57:20.563Z,11.68
2023-05-09T22:59:47.634Z,11.57
2023-05-09T23:02:14.720Z,11.50
2023-05-09T23:04:41.890Z,11.36
2023-05-09T23:07:08.903Z,11.46
2023-05-09T23:09:35.924Z,11.33
2023-05-09T23:12:03.625Z,11.20
2023-05-09T23:14:30.681Z,11.31
2023-05-09T23:16:57.658Z,11.04
2023-05-09T23:19:24.736Z,11.03
2023-05-09T23:21:51.831Z,10.95
2023-05-09T23:24:18.949Z,10.92
2023-05-09T23:26:45.952Z,10.88
2023-05-09T23:29:13.022Z,10.82
2023-05-09T23:31:40.140Z,10.78
2023-05-09T23:34:07.156Z,10.71
2023-05-09T23:36:34.136Z,10.65
2023-05-09T23:39:01.168Z,10.51
2023-05-09T23:41:28.145Z,10.52
2023-05-09T23:43:57.965Z,10.44
2023-05-09T23:46:25.118Z,10.45
2023-05-09T23:48:52.175Z,10.31
2023-05-09T23:51:20.590Z,10.28
2023-05-09T23:53:47.641Z,10.02
2023-05-09T23:56:15.120Z,10.21
2023-05-09T23:58:42.788Z,10.10
